sensor_id;sensor_type;location;lat;lon;timestamp;P1;durP1;ratioP1;P2;durP2;ratioP2
29550;SDS011;16488;52.396;10.696;2023-04-16T00:00:05;96.75;;;55.08;;
29550;SDS011;16488;52.396;10.696;2023-04-16T00:02:31;102.50;;;56.25;;
29550;SDS011;16488;52.396;10.696;2023-04-16T00:04:57;102.78;;;55.53;;
29550;SDS011;16488;52.396;10.696;2023-04-16T00:07:23;91.88;;;53.92;;
29550;SDS011;16488;52.396;10.696;2023-04-16T00:09:48;97.43;;;52.78;;
29550;SDS011;16488;52.396;10.696;2023-04-16T00:12:14;88.45;;;53.00;;
29550;SDS011;16488;52.396;10.696;2023-04-16T00:14:40;86.47;;;50.45;;
29550;SDS011;16488;52.396;10.696;2023-04-16T00:17:07;94.97;;;51.97;;
29550;SDS011;16488;52.396;10.696;2023-04-16T00:19:33;86.18;;;50.40;;
29550;SDS011;16488;52.396;10.696;2023-04-16T00:21:59;94.65;;;52.03;;
29550;SDS011;16488;52.396;10.696;2023-04-16T00:24:24;95.45;;;52.13;;
29550;SDS011;16488;52.396;10.696;2023-04-16T00:26:50;90.72;;;48.20;;
29550;SDS011;16488;52.396;10.696;2023-04-16T00:29:16;79.32;;;47.15;;
29550;SDS011;16488;52.396;10.696;2023-04-16T00:31:41;81.07;;;47.08;;
29550;SDS011;16488;52.396;10.696;2023-04-16T00:34:07;87.95;;;49.65;;
29550;SDS011;16488;52.396;10.696;2023-04-16T00:36:33;94.80;;;51.10;;
29550;SDS011;16488;52.396;10.696;2023-04-16T00:38:58;86.63;;;48.45;;
29550;SDS011;16488;52.396;10.696;2023-04-16T00:41:24;90.40;;;48.65;;
29550;SDS011;16488;52.396;10.696;2023-04-16T00:46:16;98.63;;;50.97;;
29550;SDS011;16488;52.396;10.696;2023-04-16T00:48:43;99.85;;;52.50;;
29550;SDS011;16488;52.396;10.696;2023-04-16T00:51:09;94.38;;;49.50;;
29550;SDS011;16488;52.396;10.696;2023-04-16T00:53:36;98.88;;;51.10;;
29550;SDS011;16488;52.396;10.696;2023-04-16T00:56:02;98.28;;;53.75;;
29550;SDS011;16488;52.396;10.696;2023-04-16T00:58:29;108.45;;;54.30;;
29550;SDS011;16488;52.396;10.696;2023-04-16T01:00:56;102.53;;;52.38;;
29550;SDS011;16488;52.396;10.696;2023-04-16T01:03:22;107.53;;;53.83;;
29550;SDS011;16488;52.396;10.696;2023-04-16T01:05:49;104.78;;;54.25;;
29550;SDS011;16488;52.396;10.696;2023-04-16T01:10:44;109.88;;;56.58;;
29550;SDS011;16488;52.396;10.696;2023-04-16T01:13:10;109.85;;;56.78;;
29550;SDS011;16488;52.396;10.696;2023-04-16T01:15:36;114.30;;;53.95;;
29550;SDS011;16488;52.396;10.696;2023-04-16T01:18:02;111.95;;;54.35;;
29550;SDS011;16488;52.396;10.696;2023-04-16T01:20:36;116.53;;;60.10;;
29550;SDS011;16488;52.396;10.696;2023-04-16T01:23:02;121.25;;;59.72;;
29550;SDS011;16488;52.396;10.696;2023-04-16T01:25:27;113.35;;;54.95;;
29550;SDS011;16488;52.396;10.696;2023-04-16T01:27:53;104.20;;;56.00;;
29550;SDS011;16488;52.396;10.696;2023-04-16T01:30:21;116.43;;;58.72;;
29550;SDS011;16488;52.396;10.696;2023-04-16T01:32:46;111.15;;;57.78;;
29550;SDS011;16488;52.396;10.696;2023-04-16T01:35:12;117.60;;;56.45;;
29550;SDS011;16488;52.396;10.696;2023-04-16T01:37:38;117.80;;;58.30;;
29550;SDS011;16488;52.396;10.696;2023-04-16T01:40:03;122.13;;;57.22;;
29550;SDS011;16488;52.396;10.696;2023-04-16T01:42:29;121.72;;;55.80;;
29550;SDS011;16488;52.396;10.696;2023-04-16T01:44:55;128.60;;;58.42;;
29550;SDS011;16488;52.396;10.696;2023-04-16T01:47:21;119.72;;;57.05;;
29550;SDS011;16488;52.396;10.696;2023-04-16T01:49:47;108.60;;;53.97;;
29550;SDS011;16488;52.396;10.696;2023-04-16T01:52:12;122.32;;;56.47;;
29550;SDS011;16488;52.396;10.696;2023-04-16T01:54:38;110.68;;;54.38;;
29550;SDS011;16488;52.396;10.696;2023-04-16T01:57:04;117.78;;;56.42;;
29550;SDS011;16488;52.396;10.696;2023-04-16T01:59:29;122.45;;;55.30;;
29550;SDS011;16488;52.396;10.696;2023-04-16T02:01:55;111.55;;;55.58;;
29550;SDS011;16488;52.396;10.696;2023-04-16T02:04:21;111.65;;;54.88;;
29550;SDS011;16488;52.396;10.696;2023-04-16T02:06:46;110.63;;;55.28;;
29550;SDS011;16488;52.396;10.696;2023-04-16T02:09:12;121.07;;;56.78;;
29550;SDS011;16488;52.396;10.696;2023-04-16T02:11:38;118.47;;;55.40;;
29550;SDS011;16488;52.396;10.696;2023-04-16T02:14:03;112.30;;;53.17;;
29550;SDS011;16488;52.396;10.696;2023-04-16T02:16:29;115.43;;;55.38;;
29550;SDS011;16488;52.396;10.696;2023-04-16T02:18:55;108.40;;;54.22;;
29550;SDS011;16488;52.396;10.696;2023-04-16T02:21:20;116.25;;;56.80;;
29550;SDS011;16488;52.396;10.696;2023-04-16T02:23:46;112.05;;;53.67;;
29550;SDS011;16488;52.396;10.696;2023-04-16T02:26:15;108.60;;;54.45;;
29550;SDS011;16488;52.396;10.696;2023-04-16T02:28:41;111.85;;;54.72;;
29550;SDS011;16488;52.396;10.696;2023-04-16T02:31:06;118.22;;;56.05;;
29550;SDS011;16488;52.396;10.696;2023-04-16T02:33:32;110.47;;;55.40;;
29550;SDS011;16488;52.396;10.696;2023-04-16T02:35:57;104.22;;;52.40;;
29550;SDS011;16488;52.396;10.696;2023-04-16T02:40:49;110.38;;;52.08;;
29550;SDS011;16488;52.396;10.696;2023-04-16T02:43:15;117.13;;;52.40;;
29550;SDS011;16488;52.396;10.696;2023-04-16T02:45:40;119.43;;;56.33;;
29550;SDS011;16488;52.396;10.696;2023-04-16T02:48:06;114.60;;;55.55;;
29550;SDS011;16488;52.396;10.696;2023-04-16T02:50:33;116.40;;;54.33;;
29550;SDS011;16488;52.396;10.696;2023-04-16T02:52:58;111.47;;;53.83;;
29550;SDS011;16488;52.396;10.696;2023-04-16T02:55:24;116.10;;;53.90;;
29550;SDS011;16488;52.396;10.696;2023-04-16T02:57:49;115.70;;;54.92;;
29550;SDS011;16488;52.396;10.696;2023-04-16T03:00:16;114.45;;;57.38;;
29550;SDS011;16488;52.396;10.696;2023-04-16T03:02:42;111.05;;;52.95;;
29550;SDS011;16488;52.396;10.696;2023-04-16T03:05:08;113.13;;;54.58;;
29550;SDS011;16488;52.396;10.696;2023-04-16T03:07:34;104.15;;;51.60;;
29550;SDS011;16488;52.396;10.696;2023-04-16T03:10:00;107.65;;;52.15;;
29550;SDS011;16488;52.396;10.696;2023-04-16T03:12:25;121.68;;;54.47;;
29550;SDS011;16488;52.396;10.696;2023-04-16T03:14:51;102.97;;;54.85;;
29550;SDS011;16488;52.396;10.696;2023-04-16T03:17:17;108.07;;;52.78;;
29550;SDS011;16488;52.396;10.696;2023-04-16T03:19:42;118.68;;;55.78;;
29550;SDS011;16488;52.396;10.696;2023-04-16T03:22:08;110.85;;;52.22;;
29550;SDS011;16488;52.396;10.696;2023-04-16T03:24:33;112.25;;;53.50;;
29550;SDS011;16488;52.396;10.696;2023-04-16T03:26:59;121.43;;;52.22;;
29550;SDS011;16488;52.396;10.696;2023-04-16T03:29:26;112.78;;;55.65;;
29550;SDS011;16488;52.396;10.696;2023-04-16T03:31:52;102.30;;;50.83;;
29550;SDS011;16488;52.396;10.696;2023-04-16T03:34:17;114.88;;;55.10;;
29550;SDS011;16488;52.396;10.696;2023-04-16T03:36:43;105.35;;;52.65;;
29550;SDS011;16488;52.396;10.696;2023-04-16T03:39:08;113.35;;;51.80;;
29550;SDS011;16488;52.396;10.696;2023-04-16T03:41:34;110.57;;;52.25;;
29550;SDS011;16488;52.396;10.696;2023-04-16T03:44:00;116.88;;;54.13;;
29550;SDS011;16488;52.396;10.696;2023-04-16T03:46:25;110.80;;;53.08;;
29550;SDS011;16488;52.396;10.696;2023-04-16T03:48:51;111.68;;;54.38;;
29550;SDS011;16488;52.396;10.696;2023-04-16T03:51:16;116.60;;;54.85;;
29550;SDS011;16488;52.396;10.696;2023-04-16T03:53:42;106.50;;;54.28;;
29550;SDS011;16488;52.396;10.696;2023-04-16T03:56:07;120.07;;;54.20;;
29550;SDS011;16488;52.396;10.696;2023-04-16T03:58:33;112.53;;;53.50;;
29550;SDS011;16488;52.396;10.696;2023-04-16T04:00:58;105.07;;;54.75;;
29550;SDS011;16488;52.396;10.696;2023-04-16T04:03:24;110.95;;;51.72;;
29550;SDS011;16488;52.396;10.696;2023-04-16T04:05:50;108.05;;;52.17;;
29550;SDS011;16488;52.396;10.696;2023-04-16T04:08:15;113.68;;;51.95;;
29550;SDS011;16488;52.396;10.696;2023-04-16T04:10:41;102.55;;;51.63;;
29550;SDS011;16488;52.396;10.696;2023-04-16T04:13:07;105.35;;;49.97;;
29550;SDS011;16488;52.396;10.696;2023-04-16T04:15:32;107.35;;;51.70;;
29550;SDS011;16488;52.396;10.696;2023-04-16T04:17:58;105.63;;;51.10;;
29550;SDS011;16488;52.396;10.696;2023-04-16T04:20:23;104.07;;;48.53;;
29550;SDS011;16488;52.396;10.696;2023-04-16T04:22:49;106.07;;;51.67;;
29550;SDS011;16488;52.396;10.696;2023-04-16T04:25:15;99.13;;;46.53;;
29550;SDS011;16488;52.396;10.696;2023-04-16T04:27:41;104.68;;;50.35;;
29550;SDS011;16488;52.396;10.696;2023-04-16T04:30:07;98.63;;;48.55;;
29550;SDS011;16488;52.396;10.696;2023-04-16T04:32:33;97.13;;;50.60;;
29550;SDS011;16488;52.396;10.696;2023-04-16T04:35:00;94.57;;;50.28;;
29550;SDS011;16488;52.396;10.696;2023-04-16T04:37:26;95.80;;;49.08;;
29550;SDS011;16488;52.396;10.696;2023-04-16T04:39:51;112.53;;;50.92;;
29550;SDS011;16488;52.396;10.696;2023-04-16T04:42:17;104.93;;;51.33;;
29550;SDS011;16488;52.396;10.696;2023-04-16T04:44:44;99.53;;;48.72;;
29550;SDS011;16488;52.396;10.696;2023-04-16T04:47:10;95.53;;;47.88;;
29550;SDS011;16488;52.396;10.696;2023-04-16T04:49:35;112.65;;;48.83;;
29550;SDS011;16488;52.396;10.696;2023-04-16T04:52:01;100.13;;;49.83;;
29550;SDS011;16488;52.396;10.696;2023-04-16T04:54:27;103.85;;;51.10;;
29550;SDS011;16488;52.396;10.696;2023-04-16T04:56:54;102.60;;;48.85;;
29550;SDS011;16488;52.396;10.696;2023-04-16T04:59:20;101.30;;;48.67;;
29550;SDS011;16488;52.396;10.696;2023-04-16T05:01:46;104.78;;;49.53;;
29550;SDS011;16488;52.396;10.696;2023-04-16T05:04:12;101.28;;;50.03;;
29550;SDS011;16488;52.396;10.696;2023-04-16T05:06:37;95.68;;;47.50;;
29550;SDS011;16488;52.396;10.696;2023-04-16T05:09:03;100.43;;;47.25;;
29550;SDS011;16488;52.396;10.696;2023-04-16T05:11:29;115.80;;;50.47;;
29550;SDS011;16488;52.396;10.696;2023-04-16T05:13:54;101.10;;;47.58;;
29550;SDS011;16488;52.396;10.696;2023-04-16T05:16:20;94.90;;;47.63;;
29550;SDS011;16488;52.396;10.696;2023-04-16T05:18:46;105.57;;;50.78;;
29550;SDS011;16488;52.396;10.696;2023-04-16T05:21:12;109.63;;;52.80;;
29550;SDS011;16488;52.396;10.696;2023-04-16T05:23:37;103.72;;;49.78;;
29550;SDS011;16488;52.396;10.696;2023-04-16T05:26:03;97.07;;;46.83;;
29550;SDS011;16488;52.396;10.696;2023-04-16T05:28:29;107.07;;;51.45;;
29550;SDS011;16488;52.396;10.696;2023-04-16T05:30:54;107.63;;;49.67;;
29550;SDS011;16488;52.396;10.696;2023-04-16T05:33:20;106.68;;;51.10;;
29550;SDS011;16488;52.396;10.696;2023-04-16T05:35:46;103.53;;;50.28;;
29550;SDS011;16488;52.396;10.696;2023-04-16T05:38:11;108.53;;;49.42;;
29550;SDS011;16488;52.396;10.696;2023-04-16T05:40:37;104.47;;;50.38;;
29550;SDS011;16488;52.396;10.696;2023-04-16T05:43:02;116.45;;;52.55;;
29550;SDS011;16488;52.396;10.696;2023-04-16T05:45:28;115.10;;;53.05;;
29550;SDS011;16488;52.396;10.696;2023-04-16T05:47:55;113.93;;;51.80;;
29550;SDS011;16488;52.396;10.696;2023-04-16T05:50:20;111.88;;;53.55;;
29550;SDS011;16488;52.396;10.696;2023-04-16T05:52:46;110.63;;;50.53;;
29550;SDS011;16488;52.396;10.696;2023-04-16T05:55:11;116.18;;;52.88;;
29550;SDS011;16488;52.396;10.696;2023-04-16T05:57:37;105.97;;;52.15;;
29550;SDS011;16488;52.396;10.696;2023-04-16T06:00:02;109.38;;;49.90;;
29550;SDS011;16488;52.396;10.696;2023-04-16T06:02:28;103.32;;;50.05;;
29550;SDS011;16488;52.396;10.696;2023-04-16T06:04:55;107.03;;;51.03;;
29550;SDS011;16488;52.396;10.696;2023-04-16T06:07:20;97.63;;;47.28;;
29550;SDS011;16488;52.396;10.696;2023-04-16T06:09:46;103.65;;;51.47;;
29550;SDS011;16488;52.396;10.696;2023-04-16T06:12:12;103.93;;;50.80;;
29550;SDS011;16488;52.396;10.696;2023-04-16T06:14:37;104.40;;;50.17;;
29550;SDS011;16488;52.396;10.696;2023-04-16T06:17:03;101.22;;;50.30;;
29550;SDS011;16488;52.396;10.696;2023-04-16T06:19:28;110.10;;;49.75;;
29550;SDS011;16488;52.396;10.696;2023-04-16T06:21:54;98.05;;;48.50;;
29550;SDS011;16488;52.396;10.696;2023-04-16T06:24:20;100.22;;;50.10;;
29550;SDS011;16488;52.396;10.696;2023-04-16T06:26:46;100.35;;;46.40;;
29550;SDS011;16488;52.396;10.696;2023-04-16T06:29:11;100.60;;;47.67;;
29550;SDS011;16488;52.396;10.696;2023-04-16T06:31:37;104.80;;;47.70;;
29550;SDS011;16488;52.396;10.696;2023-04-16T06:34:03;98.50;;;47.85;;
29550;SDS011;16488;52.396;10.696;2023-04-16T06:36:28;94.50;;;47.17;;
29550;SDS011;16488;52.396;10.696;2023-04-16T06:38:55;103.65;;;48.72;;
29550;SDS011;16488;52.396;10.696;2023-04-16T06:41:20;103.55;;;48.38;;
29550;SDS011;16488;52.396;10.696;2023-04-16T06:43:47;106.85;;;47.38;;
29550;SDS011;16488;52.396;10.696;2023-04-16T06:46:13;92.05;;;46.17;;
29550;SDS011;16488;52.396;10.696;2023-04-16T06:48:39;94.13;;;46.47;;
29550;SDS011;16488;52.396;10.696;2023-04-16T06:51:04;103.53;;;47.75;;
29550;SDS011;16488;52.396;10.696;2023-04-16T06:53:30;93.90;;;48.15;;
29550;SDS011;16488;52.396;10.696;2023-04-16T06:55:55;91.07;;;44.53;;
29550;SDS011;16488;52.396;10.696;2023-04-16T06:58:21;92.80;;;45.80;;
29550;SDS011;16488;52.396;10.696;2023-04-16T07:00:46;101.03;;;45.38;;
29550;SDS011;16488;52.396;10.696;2023-04-16T07:03:12;101.03;;;48.05;;
29550;SDS011;16488;52.396;10.696;2023-04-16T07:05:38;94.40;;;46.15;;
29550;SDS011;16488;52.396;10.696;2023-04-16T07:08:04;91.53;;;47.78;;
29550;SDS011;16488;52.396;10.696;2023-04-16T07:10:29;94.50;;;44.88;;
29550;SDS011;16488;52.396;10.696;2023-04-16T07:12:55;97.50;;;41.08;;
29550;SDS011;16488;52.396;10.696;2023-04-16T07:15:21;98.80;;;46.13;;
29550;SDS011;16488;52.396;10.696;2023-04-16T07:17:46;93.60;;;44.17;;
29550;SDS011;16488;52.396;10.696;2023-04-16T07:20:12;84.35;;;41.08;;
29550;SDS011;16488;52.396;10.696;2023-04-16T07:22:38;91.88;;;46.08;;
29550;SDS011;16488;52.396;10.696;2023-04-16T07:25:03;92.93;;;42.90;;
29550;SDS011;16488;52.396;10.696;2023-04-16T07:27:29;86.15;;;44.83;;
29550;SDS011;16488;52.396;10.696;2023-04-16T07:29:55;101.80;;;44.17;;
29550;SDS011;16488;52.396;10.696;2023-04-16T07:32:20;91.93;;;44.70;;
29550;SDS011;16488;52.396;10.696;2023-04-16T07:34:46;88.65;;;43.33;;
29550;SDS011;16488;52.396;10.696;2023-04-16T07:37:12;97.68;;;43.92;;
29550;SDS011;16488;52.396;10.696;2023-04-16T07:39:37;88.57;;;43.00;;
29550;SDS011;16488;52.396;10.696;2023-04-16T07:42:03;95.28;;;43.20;;
29550;SDS011;16488;52.396;10.696;2023-04-16T07:44:29;95.13;;;44.65;;
29550;SDS011;16488;52.396;10.696;2023-04-16T07:46:55;89.80;;;43.42;;
29550;SDS011;16488;52.396;10.696;2023-04-16T07:49:20;95.15;;;41.17;;
29550;SDS011;16488;52.396;10.696;2023-04-16T07:51:46;86.28;;;42.92;;
29550;SDS011;16488;52.396;10.696;2023-04-16T07:54:11;87.25;;;42.63;;
29550;SDS011;16488;52.396;10.696;2023-04-16T07:56:37;84.03;;;40.53;;
29550;SDS011;16488;52.396;10.696;2023-04-16T07:59:03;93.68;;;41.45;;
29550;SDS011;16488;52.396;10.696;2023-04-16T08:01:28;85.80;;;43.17;;
29550;SDS011;16488;52.396;10.696;2023-04-16T08:03:54;84.13;;;42.03;;
29550;SDS011;16488;52.396;10.696;2023-04-16T08:06:20;88.40;;;40.03;;
29550;SDS011;16488;52.396;10.696;2023-04-16T08:08:45;87.97;;;43.17;;
29550;SDS011;16488;52.396;10.696;2023-04-16T08:11:11;93.53;;;45.10;;
29550;SDS011;16488;52.396;10.696;2023-04-16T08:13:36;81.55;;;43.63;;
29550;SDS011;16488;52.396;10.696;2023-04-16T08:16:02;94.18;;;41.88;;
29550;SDS011;16488;52.396;10.696;2023-04-16T08:18:28;98.15;;;43.63;;
29550;SDS011;16488;52.396;10.696;2023-04-16T08:20:53;98.78;;;45.45;;
29550;SDS011;16488;52.396;10.696;2023-04-16T08:23:19;88.75;;;41.92;;
29550;SDS011;16488;52.396;10.696;2023-04-16T08:25:46;87.10;;;43.72;;
29550;SDS011;16488;52.396;10.696;2023-04-16T08:28:12;88.15;;;43.20;;
29550;SDS011;16488;52.396;10.696;2023-04-16T08:30:37;95.95;;;43.03;;
29550;SDS011;16488;52.396;10.696;2023-04-16T08:33:03;86.72;;;43.65;;
29550;SDS011;16488;52.396;10.696;2023-04-16T08:35:28;91.50;;;41.58;;
29550;SDS011;16488;52.396;10.696;2023-04-16T08:37:54;90.15;;;41.47;;
29550;SDS011;16488;52.396;10.696;2023-04-16T08:40:21;90.63;;;41.55;;
29550;SDS011;16488;52.396;10.696;2023-04-16T08:42:53;89.40;;;42.75;;
29550;SDS011;16488;52.396;10.696;2023-04-16T08:45:20;87.80;;;44.13;;
29550;SDS011;16488;52.396;10.696;2023-04-16T08:47:46;95.20;;;43.30;;
29550;SDS011;16488;52.396;10.696;2023-04-16T08:50:15;90.32;;;43.08;;
29550;SDS011;16488;52.396;10.696;2023-04-16T08:52:49;99.15;;;43.83;;
29550;SDS011;16488;52.396;10.696;2023-04-16T08:55:23;87.88;;;40.42;;
29550;SDS011;16488;52.396;10.696;2023-04-16T08:57:56;91.65;;;43.70;;
29550;SDS011;16488;52.396;10.696;2023-04-16T09:00:23;90.32;;;43.55;;
29550;SDS011;16488;52.396;10.696;2023-04-16T09:02:49;94.47;;;45.63;;
29550;SDS011;16488;52.396;10.696;2023-04-16T09:05:15;96.72;;;46.17;;
29550;SDS011;16488;52.396;10.696;2023-04-16T09:07:43;93.72;;;43.60;;
29550;SDS011;16488;52.396;10.696;2023-04-16T09:10:10;87.97;;;41.80;;
29550;SDS011;16488;52.396;10.696;2023-04-16T09:12:36;98.72;;;47.17;;
29550;SDS011;16488;52.396;10.696;2023-04-16T09:15:04;86.32;;;42.30;;
29550;SDS011;16488;52.396;10.696;2023-04-16T09:17:30;86.78;;;40.90;;
29550;SDS011;16488;52.396;10.696;2023-04-16T09:19:56;77.93;;;39.25;;
29550;SDS011;16488;52.396;10.696;2023-04-16T09:22:21;88.43;;;39.70;;
29550;SDS011;16488;52.396;10.696;2023-04-16T09:24:47;96.13;;;39.58;;
29550;SDS011;16488;52.396;10.696;2023-04-16T09:27:13;80.13;;;37.72;;
29550;SDS011;16488;52.396;10.696;2023-04-16T09:29:39;82.50;;;40.22;;
29550;SDS011;16488;52.396;10.696;2023-04-16T09:32:06;85.45;;;40.90;;
29550;SDS011;16488;52.396;10.696;2023-04-16T09:34:33;84.20;;;41.17;;
29550;SDS011;16488;52.396;10.696;2023-04-16T09:37:15;80.07;;;39.85;;
29550;SDS011;16488;52.396;10.696;2023-04-16T09:39:42;76.45;;;39.95;;
29550;SDS011;16488;52.396;10.696;2023-04-16T09:42:09;87.40;;;41.33;;
29550;SDS011;16488;52.396;10.696;2023-04-16T09:44:35;72.15;;;37.60;;
29550;SDS011;16488;52.396;10.696;2023-04-16T09:47:05;79.82;;;38.63;;
29550;SDS011;16488;52.396;10.696;2023-04-16T09:49:39;78.57;;;39.33;;
29550;SDS011;16488;52.396;10.696;2023-04-16T09:52:12;77.97;;;38.40;;
29550;SDS011;16488;52.396;10.696;2023-04-16T09:54:49;78.40;;;40.03;;
29550;SDS011;16488;52.396;10.696;2023-04-16T09:57:19;85.57;;;38.80;;
29550;SDS011;16488;52.396;10.696;2023-04-16T09:59:46;71.22;;;37.10;;
29550;SDS011;16488;52.396;10.696;2023-04-16T10:02:32;82.22;;;39.78;;
29550;SDS011;16488;52.396;10.696;2023-04-16T10:05:00;70.05;;;38.08;;
29550;SDS011;16488;52.396;10.696;2023-04-16T10:07:27;77.57;;;37.45;;
29550;SDS011;16488;52.396;10.696;2023-04-16T10:09:53;75.22;;;37.90;;
29550;SDS011;16488;52.396;10.696;2023-04-16T10:12:19;70.35;;;37.28;;
29550;SDS011;16488;52.396;10.696;2023-04-16T10:14:45;67.93;;;35.83;;
29550;SDS011;16488;52.396;10.696;2023-04-16T10:17:11;71.60;;;35.30;;
29550;SDS011;16488;52.396;10.696;2023-04-16T10:19:37;77.90;;;36.72;;
29550;SDS011;16488;52.396;10.696;2023-04-16T10:22:04;78.85;;;39.13;;
29550;SDS011;16488;52.396;10.696;2023-04-16T10:24:30;64.38;;;34.40;;
29550;SDS011;16488;52.396;10.696;2023-04-16T10:26:57;69.93;;;36.50;;
29550;SDS011;16488;52.396;10.696;2023-04-16T10:31:50;69.43;;;36.40;;
29550;SDS011;16488;52.396;10.696;2023-04-16T10:34:18;75.40;;;35.10;;
29550;SDS011;16488;52.396;10.696;2023-04-16T10:36:48;70.57;;;36.80;;
29550;SDS011;16488;52.396;10.696;2023-04-16T10:39:17;67.68;;;33.83;;
29550;SDS011;16488;52.396;10.696;2023-04-16T10:41:49;68.18;;;35.85;;
29550;SDS011;16488;52.396;10.696;2023-04-16T10:44:16;73.22;;;34.88;;
29550;SDS011;16488;52.396;10.696;2023-04-16T10:46:46;64.88;;;34.25;;
29550;SDS011;16488;52.396;10.696;2023-04-16T10:49:19;64.63;;;33.58;;
29550;SDS011;16488;52.396;10.696;2023-04-16T10:51:51;63.42;;;31.63;;
29550;SDS011;16488;52.396;10.696;2023-04-16T10:54:24;69.35;;;35.45;;
29550;SDS011;16488;52.396;10.696;2023-04-16T10:56:52;56.97;;;33.00;;
29550;SDS011;16488;52.396;10.696;2023-04-16T10:59:20;73.68;;;33.92;;
29550;SDS011;16488;52.396;10.696;2023-04-16T11:01:51;62.08;;;32.15;;
29550;SDS011;16488;52.396;10.696;2023-04-16T11:12:15;52.65;;;30.98;;
29550;SDS011;16488;52.396;10.696;2023-04-16T11:14:43;52.45;;;32.22;;
29550;SDS011;16488;52.396;10.696;2023-04-16T11:17:26;52.13;;;28.38;;
29550;SDS011;16488;52.396;10.696;2023-04-16T11:19:54;54.97;;;31.30;;
29550;SDS011;16488;52.396;10.696;2023-04-16T11:22:20;54.17;;;29.83;;
29550;SDS011;16488;52.396;10.696;2023-04-16T11:24:46;54.10;;;29.95;;
29550;SDS011;16488;52.396;10.696;2023-04-16T11:27:18;49.72;;;29.10;;
29550;SDS011;16488;52.396;10.696;2023-04-16T11:29:44;48.47;;;28.38;;
29550;SDS011;16488;52.396;10.696;2023-04-16T11:32:09;53.35;;;29.58;;
29550;SDS011;16488;52.396;10.696;2023-04-16T11:34:44;52.25;;;28.92;;
29550;SDS011;16488;52.396;10.696;2023-04-16T11:37:10;53.10;;;29.55;;
29550;SDS011;16488;52.396;10.696;2023-04-16T11:39:46;57.72;;;28.85;;
29550;SDS011;16488;52.396;10.696;2023-04-16T11:42:18;48.38;;;27.70;;
29550;SDS011;16488;52.396;10.696;2023-04-16T11:44:45;52.72;;;28.73;;
29550;SDS011;16488;52.396;10.696;2023-04-16T11:47:10;52.80;;;28.30;;
29550;SDS011;16488;52.396;10.696;2023-04-16T11:49:37;51.88;;;28.20;;
29550;SDS011;16488;52.396;10.696;2023-04-16T11:52:03;50.20;;;29.55;;
29550;SDS011;16488;52.396;10.696;2023-04-16T11:54:28;53.20;;;29.63;;
29550;SDS011;16488;52.396;10.696;2023-04-16T11:56:58;58.05;;;32.08;;
29550;SDS011;16488;52.396;10.696;2023-04-16T11:59:24;51.17;;;30.15;;
29550;SDS011;16488;52.396;10.696;2023-04-16T12:01:51;54.30;;;29.50;;
29550;SDS011;16488;52.396;10.696;2023-04-16T12:04:21;54.33;;;29.40;;
29550;SDS011;16488;52.396;10.696;2023-04-16T12:09:34;49.42;;;26.73;;
29550;SDS011;16488;52.396;10.696;2023-04-16T12:12:00;50.85;;;29.55;;
29550;SDS011;16488;52.396;10.696;2023-04-16T12:14:26;57.47;;;28.85;;
29550;SDS011;16488;52.396;10.696;2023-04-16T12:19:19;54.10;;;29.67;;
29550;SDS011;16488;52.396;10.696;2023-04-16T12:24:11;48.75;;;28.20;;
29550;SDS011;16488;52.396;10.696;2023-04-16T12:26:40;47.78;;;28.17;;
29550;SDS011;16488;52.396;10.696;2023-04-16T12:31:42;48.10;;;27.60;;
29550;SDS011;16488;52.396;10.696;2023-04-16T12:34:08;42.60;;;26.67;;
29550;SDS011;16488;52.396;10.696;2023-04-16T12:36:34;49.65;;;26.88;;
29550;SDS011;16488;52.396;10.696;2023-04-16T12:39:00;39.95;;;26.27;;
29550;SDS011;16488;52.396;10.696;2023-04-16T12:41:28;45.83;;;25.98;;
29550;SDS011;16488;52.396;10.696;2023-04-16T12:44:03;48.10;;;27.25;;
29550;SDS011;16488;52.396;10.696;2023-04-16T12:46:35;41.38;;;25.80;;
29550;SDS011;16488;52.396;10.696;2023-04-16T12:49:04;43.55;;;23.10;;
29550;SDS011;16488;52.396;10.696;2023-04-16T12:51:30;43.50;;;24.73;;
29550;SDS011;16488;52.396;10.696;2023-04-16T12:53:57;38.90;;;22.17;;
29550;SDS011;16488;52.396;10.696;2023-04-16T12:56:23;36.47;;;22.75;;
29550;SDS011;16488;52.396;10.696;2023-04-16T12:58:48;41.35;;;23.83;;
29550;SDS011;16488;52.396;10.696;2023-04-16T13:01:16;38.50;;;21.77;;
29550;SDS011;16488;52.396;10.696;2023-04-16T13:03:45;37.53;;;22.30;;
29550;SDS011;16488;52.396;10.696;2023-04-16T13:08:38;32.28;;;21.40;;
29550;SDS011;16488;52.396;10.696;2023-04-16T13:11:03;35.42;;;21.33;;
29550;SDS011;16488;52.396;10.696;2023-04-16T13:13:30;32.42;;;20.60;;
29550;SDS011;16488;52.396;10.696;2023-04-16T13:15:56;35.35;;;20.10;;
29550;SDS011;16488;52.396;10.696;2023-04-16T13:18:21;28.52;;;19.30;;
29550;SDS011;16488;52.396;10.696;2023-04-16T13:20:47;28.08;;;20.23;;
29550;SDS011;16488;52.396;10.696;2023-04-16T13:23:13;33.13;;;21.83;;
29550;SDS011;16488;52.396;10.696;2023-04-16T13:25:38;37.95;;;21.35;;
29550;SDS011;16488;52.396;10.696;2023-04-16T13:28:04;34.95;;;21.67;;
29550;SDS011;16488;52.396;10.696;2023-04-16T13:30:30;30.88;;;21.05;;
29550;SDS011;16488;52.396;10.696;2023-04-16T13:32:57;35.00;;;19.73;;
29550;SDS011;16488;52.396;10.696;2023-04-16T13:35:23;34.65;;;20.67;;
29550;SDS011;16488;52.396;10.696;2023-04-16T13:37:48;34.25;;;20.05;;
29550;SDS011;16488;52.396;10.696;2023-04-16T13:40:14;29.85;;;19.00;;
29550;SDS011;16488;52.396;10.696;2023-04-16T13:42:40;29.42;;;20.08;;
29550;SDS011;16488;52.396;10.696;2023-04-16T13:45:06;31.35;;;18.67;;
29550;SDS011;16488;52.396;10.696;2023-04-16T13:47:33;26.83;;;18.27;;
29550;SDS011;16488;52.396;10.696;2023-04-16T13:49:59;25.02;;;16.85;;
29550;SDS011;16488;52.396;10.696;2023-04-16T13:52:24;27.55;;;17.00;;
29550;SDS011;16488;52.396;10.696;2023-04-16T13:54:50;27.42;;;16.77;;
29550;SDS011;16488;52.396;10.696;2023-04-16T13:57:16;28.02;;;16.73;;
29550;SDS011;16488;52.396;10.696;2023-04-16T13:59:42;25.10;;;16.42;;
29550;SDS011;16488;52.396;10.696;2023-04-16T14:02:08;25.23;;;16.10;;
29550;SDS011;16488;52.396;10.696;2023-04-16T14:04:35;21.85;;;15.57;;
29550;SDS011;16488;52.396;10.696;2023-04-16T14:07:00;27.50;;;15.73;;
29550;SDS011;16488;52.396;10.696;2023-04-16T14:09:26;28.00;;;15.73;;
29550;SDS011;16488;52.396;10.696;2023-04-16T14:11:52;24.10;;;15.68;;
29550;SDS011;16488;52.396;10.696;2023-04-16T14:14:17;22.90;;;14.18;;
29550;SDS011;16488;52.396;10.696;2023-04-16T14:16:43;21.98;;;13.40;;
29550;SDS011;16488;52.396;10.696;2023-04-16T14:19:08;22.53;;;14.63;;
29550;SDS011;16488;52.396;10.696;2023-04-16T14:21:34;24.08;;;14.82;;
29550;SDS011;16488;52.396;10.696;2023-04-16T14:24:00;23.00;;;14.38;;
29550;SDS011;16488;52.396;10.696;2023-04-16T14:26:26;24.83;;;14.38;;
29550;SDS011;16488;52.396;10.696;2023-04-16T14:28:52;22.33;;;14.82;;